Overview Statistics Trail Chart Weather Telemetry Raw packets
 

This is the latest recevied weather packets stored in our database for station/object WX4SGA. If no packets are shown the sender has not sent any weather packets the latest 10 day(s).

<< 49 50 51 52 53 54 55 >>
Time Temp. Humidity Pressure Rain* Wind** Luminosity Snow
1788279377 29.44° C 76% 1019.6 hPa 0 mm - 807 W/m² -
1788279076 29.44° C 78% 1019.6 hPa 0 mm - 813 W/m² -
1788278773 30° C 74% 1020 hPa 0 mm - 850 W/m² -
1788278468 29.44° C 77% 1019.6 hPa 0 mm - 468 W/m² -
1788278167 28.89° C 80% 1019.6 hPa 0 mm - 786 W/m² -
1788277863 28.89° C 79% 1020 hPa 0 mm - 417 W/m² -
1788277562 28.89° C 77% 1020 hPa 0 mm - 748 W/m² -
1788277256 28.89° C 79% 1020 hPa 0 mm - 221 W/m² -
1788276952 29.44° C 78% 1020 hPa 0 mm - 704 W/m² -
1788276645 29.44° C 80% 1020 hPa 0 mm - 697 W/m² -
1788276341 28.89° C 79% 1019.6 hPa 0 mm - 697 W/m² -
1788276039 28.89° C 78% 1019.6 hPa 0 mm - 666 W/m² -
1788275735 28.33° C 82% 1019.6 hPa 0 mm - 640 W/m² -
1788275434 27.78° C 84% 1019.6 hPa 0 mm - 752 W/m² -
1788275133 28.33° C 84% 1019.6 hPa 0 mm - 488 W/m² -
1788274832 27.78° C 87% 1019.6 hPa 0 mm - 699 W/m² -
1788274530 28.33° C 85% 1019.6 hPa 0 mm - 701 W/m² -
1788274234 28.33° C 84% 1019.6 hPa 0 mm - 660 W/m² -
1788273920 27.78° C 85% 1019.6 hPa 0 mm - 675 W/m² -
1788273615 28.33° C 84% 1019.6 hPa 0 mm - 667 W/m² -
1788273326 27.22° C 88% 1019.6 hPa 0 mm - 678 W/m² -
1788273008 26.67° C 91% 1019.6 hPa 0 mm - 494 W/m² -
1788272701 26.67° C 92% 1019.6 hPa 0 mm - 289 W/m² -
1788272396 26.11° C 93% 1019.6 hPa 0 mm - 533 W/m² -
1788272096 26.11° C 94% 1019.6 hPa 0 mm - 393 W/m² -

* Rain latest hour (hover to see other rain measurements)
** Current wind speed in m/s (hover to see current wind gust speed)